Flight Track Log - Related Links

Times and Time Zones

All times are in EDT time to prevent confusion due to time zone crossing. See the AAL1326 flight status page for this flight to view local times or setup timezone preferences in your user account.

Time Position Orientation Groundspeed Altitude Reporting Facility
EDT Latitude Longitude Course Direction KTS MPH feet Rate Location/Type
Sun 04:33:00 PM 39.4657 -94.4949 41° Northeast  Level FlightAware Approximate
Sun 04:33:17 PM 39.4350 -94.5850 41° Northeast 261 300 6,800  Level FlightAware ADS-B
Sun 04:33:47 PM 39.4610 -94.5500 46° Northeast 265 305 8,400 3,086 Climbing FlightAware ADS-B
Sun 04:34:27 PM 39.4960 -94.5040 45° Northeast 274 315 10,400 2,329 Climbing FlightAware ADS-B
Sun 04:35:12 PM 39.5410 -94.4420 47° Northeast 325 374 11,700 2,329 Climbing FlightAware ADS-B
Sun 04:35:52 PM 39.5830 -94.3840 47° Northeast 338 389 13,700 3,106 Climbing FlightAware ADS-B
Sun 04:36:37 PM 39.6310 -94.3180 47° Northeast 346 398 16,100 2,965 Climbing FlightAware ADS-B
Sun 04:37:17 PM 39.6760 -94.2570 46° Northeast 360 414 17,900 2,550 Climbing FlightAware ADS-B
Sun 04:37:57 PM 39.7210 -94.1950 47° Northeast 376 433 19,500 2,471 Climbing FlightAware ADS-B
Sun 04:38:42 PM 39.7770 -94.1190 46° Northeast 388 447 21,400 2,682 Climbing FlightAware ADS-B
Sun 04:39:22 PM 39.8310 -94.0510 44° Northeast 390 449 23,300 2,682 Climbing FlightAware ADS-B
Sun 04:40:07 PM 39.8880 -93.9780 44° Northeast 392 451 25,200 2,329 Climbing FlightAware ADS-B
Sun 04:40:47 PM 39.9390 -93.9090 46° Northeast 398 458 26,600 1,950 Climbing FlightAware ADS-B
Sun 04:41:27 PM 39.9690 -93.8220 66° East 404 465 27,800 1,694 Climbing FlightAware ADS-B
Sun 04:42:12 PM 39.9960 -93.7140 72° East 416 479 29,000 847 Climbing FlightAware ADS-B
Sun 04:42:52 PM 40.0210 -93.6150 72° East 425 489 29,000  Level FlightAware ADS-B
Sun 04:43:37 PM 40.0470 -93.5120 72° East 424 488 29,000  Level FlightAware ADS-B
Sun 04:44:17 PM 40.0720 -93.4120 72° East 423 487 29,000  Level FlightAware ADS-B
Sun 04:44:57 PM 40.0960 -93.3140 72° East 423 487 29,000  Level FlightAware ADS-B
Sun 04:45:37 PM 40.1180 -93.2270 72° East 423 487 29,000  Level FlightAware ADS-B
Sun 04:46:22 PM 40.1460 -93.1150 72° East 423 487 29,000  Level FlightAware ADS-B
Sun 04:47:07 PM 40.1740 -92.9980 73° East 424 488 29,000  Level FlightAware ADS-B
Sun 04:47:47 PM 40.1980 -92.9000 72° East 426 490 29,000  Level FlightAware ADS-B
Sun 04:48:27 PM 40.2220 -92.8050 72° East 426 490 29,000  Level FlightAware ADS-B
Sun 04:49:12 PM 40.2480 -92.6960 73° East 426 490 29,000  Level FlightAware ADS-B
Sun 04:49:52 PM 40.2720 -92.5950 73° East 427 491 29,000  Level FlightAware ADS-B
Sun 04:50:32 PM 40.2960 -92.4990 72° East 428 493 29,000  Level FlightAware ADS-B
Sun 04:51:17 PM 40.3220 -92.3890 73° East 426 490 29,000  Level FlightAware ADS-B
Sun 04:52:12 PM 40.3530 -92.2630 72° East 427 491 29,000  Level FlightAware ADS-B
Sun 04:52:57 PM 40.3810 -92.1410 73° East 425 489 29,000  Level FlightAware ADS-B
Sun 04:53:37 PM 40.4050 -92.0400 73° East 425 489 29,000  Level FlightAware ADS-B
Sun 04:54:17 PM 40.4260 -91.9500 73° East 426 490 29,000  Level FlightAware ADS-B
Sun 04:55:02 PM 40.4540 -91.8310 73° East 426 490 29,000  Level FlightAware ADS-B
Sun 04:55:42 PM 40.4750 -91.7410 73° East 427 491 29,000  Level FlightAware ADS-B
Sun 04:56:22 PM 40.5010 -91.6320 73° East 427 491 29,000 -565 Level FlightAware ADS-B
Sun 04:57:07 PM 40.5270 -91.5200 73° East 417 480 28,200 -1,412 Descending FlightAware ADS-B
Sun 04:57:47 PM 40.5470 -91.4290 74° East 406 467 27,000 -900 Descending FlightAware ADS-B
Sun 04:58:27 PM 40.5750 -91.3410 67° East 402 463 27,000  Level FlightAware ADS-B
Sun 04:59:27 PM 40.6200 -91.2090 66° East 399 459 27,000  Level FlightAware ADS-B
Sun 05:00:07 PM 40.6510 -91.1190 66° East 402 463 27,000  Level FlightAware ADS-B
Sun 05:00:52 PM 40.6850 -91.0200 66° East 403 464 27,000  Level FlightAware ADS-B
Sun 05:01:32 PM 40.7170 -90.9250 66° East 401 461 27,000  Level FlightAware ADS-B
Sun 05:02:07 PM 40.7400 -90.8570 66° East 401 461 27,000  Level FlightAware ADS-B
Sun 05:02:57 PM 40.7850 -90.7240 66° East 425 489 27,000  Level FlightAware ADS-B
Sun 05:03:37 PM 40.8170 -90.6300 66° East 430 495 27,000 -450 Level FlightAware ADS-B
Sun 05:04:17 PM 40.8480 -90.5370 66° East 427 491 26,400 -988 Descending FlightAware ADS-B
Sun 05:05:02 PM 40.8830 -90.4320 66° East 424 488 25,600 -1,059 Descending FlightAware ADS-B
Sun 05:05:42 PM 40.9150 -90.3360 66° East 419 482 24,900 -988 Descending FlightAware ADS-B
Sun 05:06:27 PM 40.9480 -90.2340 67° East 414 476 24,200 -635 Descending FlightAware ADS-B
Sun 05:07:07 PM 40.9790 -90.1410 66° East 411 473 24,000 -150 Descending FlightAware ADS-B
Sun 05:07:47 PM 41.0100 -90.0470 66° East 410 472 24,000  Level FlightAware ADS-B
Sun 05:08:32 PM 41.0440 -89.9450 66° East 410 472 24,000  Level FlightAware ADS-B
Sun 05:09:12 PM 41.0750 -89.8500 67° East 410 472 24,000  Level FlightAware ADS-B
Sun 05:09:57 PM 41.1070 -89.7500 67° East 409 471 24,000  Level FlightAware ADS-B
Sun 05:10:37 PM 41.1390 -89.6530 66° East 410 472 24,000  Level FlightAware ADS-B
Sun 05:11:17 PM 41.1690 -89.5640 66° East 413 475 24,000 -353 Level FlightAware ADS-B
Sun 05:12:02 PM 41.2110 -89.4610 62° Northeast 412 474 23,500 -1,341 Descending FlightAware ADS-B
Sun 05:12:42 PM 41.2460 -89.3750 62° Northeast 406 467 22,100 -2,329 Descending FlightAware ADS-B
Sun 05:13:27 PM 41.2850 -89.2780 62° Northeast 393 452 20,200 -2,471 Descending FlightAware ADS-B
Sun 05:14:07 PM 41.3190 -89.1940 62° Northeast 383 441 18,600 -2,400 Descending FlightAware ADS-B
Sun 05:14:47 PM 41.3530 -89.1080 62° Northeast 377 434 17,000 -2,400 Descending FlightAware ADS-B
Sun 05:15:32 PM 41.3890 -89.0180 62° Northeast 370 426 15,200 -2,188 Descending FlightAware ADS-B
Sun 05:16:12 PM 41.4200 -88.9410 62° Northeast 352 405 13,900 -1,906 Descending FlightAware ADS-B
Sun 05:16:57 PM 41.4530 -88.8570 62° Northeast 335 386 12,500 -1,906 Descending FlightAware ADS-B
Sun 05:17:37 PM 41.4820 -88.7840 62° Northeast 336 387 11,200 -1,200 Descending FlightAware ADS-B
Sun 05:18:17 PM 41.5110 -88.7110 62° Northeast 303 349 10,900 -212 Descending FlightAware ADS-B
Sun 05:19:02 PM 41.5380 -88.6420 62° Northeast 277 319 10,900  Level FlightAware ADS-B
Sun 05:19:42 PM 41.5620 -88.5820 62° Northeast 275 316 10,900 -424 Level FlightAware ADS-B
Sun 05:20:27 PM 41.5840 -88.5110 67° East 274 315 10,300 -943 Descending FlightAware ADS-B
Sun 05:20:52 PM 41.5920 -88.4730 74° East 271 312 9,800 -1,527 Descending FlightAware ADS-B
Sun 05:21:22 PM 41.6020 -88.4230 75° East 273 314 8,900 -1,636 Descending FlightAware ADS-B
Sun 05:21:47 PM 41.6100 -88.3840 75° East 273 314 8,300 -982 Descending FlightAware ADS-B
Sun 05:22:17 PM 41.6200 -88.3330 75° East 276 318 8,000 -533 Descending FlightAware ADS-B
Sun 05:22:32 PM 41.6250 -88.3090 74° East 276 318 7,900 -133 Descending FlightAware ADS-B
Sun 05:23:02 PM 41.6430 -88.2650 61° Northeast 278 320 7,900  Level FlightAware ADS-B
Sun 05:23:32 PM 41.6720 -88.2310 41° Northeast 274 315 7,900  Level FlightAware ADS-B
Sun 05:23:42 PM 41.6810 -88.2200 42° Northeast 273 314 7,900 -1,050 Level FlightAware ADS-B
Sun 05:24:12 PM 41.7080 -88.1890 41° Northeast 248 285 7,200 -1,300 Descending FlightAware ADS-B
Sun 05:24:42 PM 41.7330 -88.1600 41° Northeast 228 262 6,600 -1,309 Descending FlightAware ADS-B
Sun 05:25:07 PM 41.7520 -88.1380 41° Northeast 220 253 6,000 -1,309 Descending FlightAware ADS-B
Sun 05:25:37 PM 41.7740 -88.1110 42° Northeast 220 253 5,400 -1,309 Descending FlightAware ADS-B
Sun 05:26:02 PM 41.7940 -88.0870 42° Northeast 218 251 4,800 -1,200 Descending FlightAware ADS-B
Sun 05:26:32 PM 41.8160 -88.0610 41° Northeast 215 247 4,300 -1,091 Descending FlightAware ADS-B
Sun 05:26:57 PM 41.8340 -88.0400 41° Northeast 213 245 3,800 -1,200 Descending FlightAware ADS-B
Sun 05:27:27 PM 41.8560 -88.0150 40° Northeast 195 224 3,200 -1,200 Descending FlightAware ADS-B
Sun 05:27:42 PM 41.8660 -88.0030 42° Northeast 186 214 2,900 -1,050 Descending FlightAware ADS-B
Sun 05:28:07 PM 41.8820 -87.9840 41° Northeast 177 204 2,500 -982 Descending FlightAware ADS-B
Sun 05:28:37 PM 41.8990 -87.9640 41° Northeast 162 186 2,000 -900 Descending FlightAware ADS-B
Sun 05:29:07 PM 41.9150 -87.9450 41° Northeast 133 153 1,600 -750 Descending FlightAware ADS-B
Sun 05:29:17 PM 41.9190 -87.9400 43° Northeast 131 151 1,500 -600 Descending FlightAware ADS-B
Sun 05:29:47 PM 41.9320 -87.9250 41° Northeast 131 151 1,200 -700 Descending FlightAware ADS-B
Sun 05:30:17 PM 41.9460 -87.9080 42° Northeast 130 150 800 -667 Descending FlightAware ADS-B
Sun 05:30:32 PM 41.9530 -87.9000 40° Northeast 129 148 700 -400 Descending FlightAware ADS-B

Login

Don't have an account? Register now (free) for customized features, flight alerts, and more!